Time;durP1;ratioP1;P1;durP2;ratioP2;P2;SDS_P1;SDS_P2;PMS_P1;PMS_P2;Temp;Humidity;BMP_temperature;BMP_pressure;BME280_temperature;BME280_humidity;BME280_pressure;Samples;Min_cycle;Max_cycle;Signal;HPM_P1;HPM_P2
2023/12/09 00:01:09;;;;;;;4.55;2.58;;;10.80;71.80;;;;;;2265599;56;21048;-68
2023/12/09 00:03:35;;;;;;;6.40;2.80;;;10.70;71.70;;;;;;2496605;55;21514;-69
2023/12/09 00:06:02;;;;;;;7.55;3.78;;;10.70;71.60;;;;;;2247652;56;21018;-69
2023/12/09 00:08:28;;;;;;;4.07;2.28;;;10.60;71.50;;;;;;2504972;55;20925;-68
2023/12/09 00:10:54;;;;;;;4.80;2.40;;;10.60;71.50;;;;;;2478120;55;20982;-69
2023/12/09 00:13:20;;;;;;;3.65;2.12;;;10.50;71.50;;;;;;2506786;55;20960;-69
2023/12/09 00:15:47;;;;;;;5.43;3.03;;;10.50;71.50;;;;;;2505259;55;21457;-68
2023/12/09 00:18:14;;;;;;;4.90;2.40;;;10.40;71.50;;;;;;2506275;55;21083;-69
2023/12/09 00:20:40;;;;;;;4.97;2.70;;;10.40;71.50;;;;;;2507242;55;21580;-68
2023/12/09 00:23:07;;;;;;;4.65;2.55;;;10.30;71.40;;;;;;2504981;55;20936;-68
2023/12/09 00:25:34;;;;;;;4.95;2.62;;;10.30;71.50;;;;;;2506546;55;21024;-69
2023/12/09 00:28:00;;;;;;;4.90;2.08;;;10.20;71.50;;;;;;2276260;56;20992;-68
2023/12/09 00:30:26;;;;;;;4.82;2.60;;;10.20;71.50;;;;;;2504246;55;21790;-68
2023/12/09 00:32:53;;;;;;;4.37;2.30;;;10.10;71.50;;;;;;2502795;55;21091;-68
2023/12/09 00:35:19;;;;;;;5.43;2.65;;;10.10;71.50;;;;;;2273133;56;21033;-68
2023/12/09 00:37:45;;;;;;;6.47;3.03;;;10.10;71.60;;;;;;2489977;55;21334;-68
2023/12/09 00:40:12;;;;;;;5.87;3.40;;;10.10;71.70;;;;;;2276418;56;21029;-68
2023/12/09 00:42:38;;;;;;;5.95;3.10;;;10.00;71.70;;;;;;2276789;56;21308;-68
2023/12/09 00:45:05;;;;;;;5.85;3.20;;;10.00;71.90;;;;;;2489165;55;21022;-68
2023/12/09 00:47:32;;;;;;;6.10;3.33;;;9.90;73.10;;;;;;2502111;55;20987;-69
2023/12/09 00:49:58;;;;;;;7.47;3.45;;;9.90;73.30;;;;;;2506468;55;21055;-68
2023/12/09 00:52:24;;;;;;;7.37;3.03;;;9.90;73.60;;;;;;2506517;55;20957;-68
2023/12/09 00:54:51;;;;;;;6.35;3.87;;;9.90;73.80;;;;;;2480425;54;21313;-69
2023/12/09 00:57:19;;;;;;;7.20;3.87;;;9.90;74.00;;;;;;2507784;55;21059;-68
2023/12/09 00:59:45;;;;;;;9.00;4.15;;;9.90;74.20;;;;;;2503210;55;21402;-69
2023/12/09 01:02:11;;;;;;;7.78;4.12;;;9.90;74.50;;;;;;2485071;55;21477;-68
2023/12/09 01:04:38;;;;;;;6.85;3.40;;;9.90;74.70;;;;;;2276611;56;21019;-69
2023/12/09 01:07:04;;;;;;;6.25;3.70;;;9.90;74.90;;;;;;2277286;56;20976;-68
2023/12/09 01:09:30;;;;;;;6.65;3.47;;;9.90;75.10;;;;;;2239364;56;21365;-68
2023/12/09 01:11:57;;;;;;;7.15;3.78;;;10.00;74.30;;;;;;2243247;56;20975;-69
2023/12/09 01:14:23;;;;;;;7.62;3.45;;;10.00;74.50;;;;;;2252383;56;21365;-69
2023/12/09 01:16:49;;;;;;;8.00;4.18;;;10.10;74.70;;;;;;2252490;56;20993;-69
2023/12/09 01:19:15;;;;;;;7.12;3.90;;;10.10;74.80;;;;;;2251301;56;21525;-69
2023/12/09 01:21:42;;;;;;;6.12;3.22;;;10.10;74.90;;;;;;2252710;56;21397;-69
2023/12/09 01:24:08;;;;;;;8.52;3.83;;;10.20;75.10;;;;;;2483395;55;21054;-69
2023/12/09 01:26:34;;;;;;;7.15;3.50;;;10.20;75.20;;;;;;2482852;55;21511;-69
2023/12/09 01:29:03;;;;;;;7.32;3.33;;;10.30;75.40;;;;;;2478059;55;20955;-69
2023/12/09 01:31:30;;;;;;;6.75;3.65;;;10.30;75.40;;;;;;2259855;55;21366;-69
2023/12/09 01:33:56;;;;;;;9.77;4.47;;;10.30;75.40;;;;;;2479001;55;20963;-69
2023/12/09 01:36:22;;;;;;;7.57;4.05;;;10.40;75.40;;;;;;2484384;55;21338;-69
2023/12/09 01:38:49;;;;;;;6.97;3.83;;;10.50;75.50;;;;;;2471550;55;21487;-69
2023/12/09 01:41:15;;;;;;;7.75;3.70;;;10.50;75.50;;;;;;2476160;55;21550;-69
2023/12/09 01:43:46;;;;;;;8.10;4.28;;;10.50;75.50;;;;;;2250236;56;21226;-69
2023/12/09 01:46:13;;;;;;;8.38;4.15;;;10.60;75.40;;;;;;2476442;55;20955;-68
2023/12/09 01:48:39;;;;;;;5.78;3.62;;;10.60;75.40;;;;;;2476092;55;20982;-69
2023/12/09 01:51:06;;;;;;;5.47;3.42;;;10.60;75.40;;;;;;2251742;56;21377;-69
2023/12/09 01:53:33;;;;;;;5.40;3.10;;;10.70;75.40;;;;;;2437693;55;21103;-69
2023/12/09 01:55:59;;;;;;;9.35;3.97;;;10.70;75.30;;;;;;2469056;55;21023;-69
2023/12/09 01:58:26;;;;;;;7.93;4.78;;;10.70;75.20;;;;;;2254497;55;21312;-69
2023/12/09 02:00:53;;;;;;;6.15;3.92;;;10.80;75.00;;;;;;2447344;55;21278;-69
2023/12/09 02:03:19;;;;;;;7.55;4.10;;;10.80;74.90;;;;;;2252527;56;20994;-69
2023/12/09 02:05:45;;;;;;;8.45;4.32;;;10.80;74.70;;;;;;2475961;56;21009;-69
2023/12/09 02:08:12;;;;;;;8.43;4.47;;;10.80;74.60;;;;;;2485921;54;20972;-70
2023/12/09 02:10:38;;;;;;;7.25;3.40;;;10.80;74.40;;;;;;2481996;55;21071;-69
2023/12/09 02:13:23;;;;;;;7.07;3.08;;;10.80;74.20;;;;;;2480463;55;20963;-69
2023/12/09 02:16:15;;;;;;;7.57;3.55;;;10.90;74.10;;;;;;2252218;55;21006;-69
2023/12/09 02:18:41;;;;;;;6.53;3.50;;;10.90;74.00;;;;;;2475863;55;20963;-69
2023/12/09 02:21:08;;;;;;;7.70;3.40;;;10.90;74.10;;;;;;2464943;55;20978;-69
2023/12/09 02:23:34;;;;;;;6.90;3.42;;;10.90;74.10;;;;;;2244064;56;21535;-69
2023/12/09 02:26:03;;;;;;;7.05;3.17;;;10.90;74.10;;;;;;2475181;55;21459;-69
2023/12/09 02:28:31;;;;;;;7.10;3.45;;;10.90;74.10;;;;;;2253959;55;21041;-69
2023/12/09 02:31:23;;;;;;;5.40;2.80;;;10.90;74.10;;;;;;2477000;55;21822;-69
2023/12/09 02:33:49;;;;;;;6.70;3.03;;;10.90;74.10;;;;;;2477207;55;21388;-69
2023/12/09 02:36:17;;;;;;;6.43;2.55;;;10.90;74.10;;;;;;2247832;55;21014;-69
2023/12/09 02:38:43;;;;;;;5.82;2.47;;;10.90;74.20;;;;;;2243270;55;20966;-69
2023/12/09 02:41:09;;;;;;;4.75;2.17;;;10.90;74.20;;;;;;2250642;56;21900;-68
2023/12/09 02:43:36;;;;;;;5.90;2.28;;;10.90;74.20;;;;;;2469894;55;21402;-69
2023/12/09 02:46:03;;;;;;;6.80;2.55;;;10.90;74.20;;;;;;2454940;55;21634;-69
2023/12/09 02:48:29;;;;;;;5.45;2.62;;;10.90;74.20;;;;;;2250888;55;21602;-69
2023/12/09 02:50:55;;;;;;;5.78;2.50;;;10.90;74.30;;;;;;2251535;55;21796;-69
2023/12/09 02:53:22;;;;;;;6.20;2.72;;;10.90;74.30;;;;;;2501985;55;21508;-69
2023/12/09 02:55:48;;;;;;;7.12;2.70;;;10.90;74.30;;;;;;2486805;55;21060;-69
2023/12/09 02:58:15;;;;;;;5.25;2.55;;;10.90;74.40;;;;;;2485390;55;20972;-69
2023/12/09 03:00:41;;;;;;;7.10;2.85;;;10.90;74.40;;;;;;2265987;56;20993;-69
2023/12/09 03:03:07;;;;;;;6.37;2.58;;;11.00;74.60;;;;;;2493406;55;21565;-69
2023/12/09 03:05:34;;;;;;;7.47;2.70;;;11.00;74.60;;;;;;2265088;56;20980;-69
2023/12/09 03:08:00;;;;;;;5.12;2.50;;;11.00;74.60;;;;;;2493404;54;20971;-69
2023/12/09 03:10:26;;;;;;;6.57;2.25;;;11.00;74.60;;;;;;2475086;55;21456;-69
2023/12/09 03:12:53;;;;;;;5.78;2.37;;;11.00;74.60;;;;;;2476360;55;21463;-69
2023/12/09 03:15:19;;;;;;;7.87;2.92;;;11.00;74.70;;;;;;2253012;56;21051;-69
2023/12/09 03:17:46;;;;;;;7.45;3.92;;;11.00;74.70;;;;;;2477041;55;21590;-69
2023/12/09 03:20:12;;;;;;;8.27;3.75;;;11.10;74.70;;;;;;2476853;56;21436;-69
2023/12/09 03:22:39;;;;;;;6.00;2.90;;;11.10;74.70;;;;;;2473987;55;21022;-69
2023/12/09 03:25:05;;;;;;;5.78;2.50;;;11.10;74.70;;;;;;2256679;55;21104;-68
2023/12/09 03:27:31;;;;;;;6.40;2.50;;;11.10;74.70;;;;;;2477797;55;21100;-69
2023/12/09 03:29:58;;;;;;;4.55;2.20;;;11.10;74.70;;;;;;2471054;55;21113;-69
2023/12/09 03:32:24;;;;;;;7.90;2.70;;;11.10;74.70;;;;;;2476281;55;21436;-69
2023/12/09 03:34:51;;;;;;;5.65;2.50;;;11.20;74.70;;;;;;2476401;55;21574;-69
2023/12/09 03:37:17;;;;;;;6.30;2.45;;;11.20;74.70;;;;;;2256590;55;21290;-69
2023/12/09 03:39:43;;;;;;;5.12;2.17;;;11.20;74.90;;;;;;2483687;55;21330;-69
2023/12/09 03:42:09;;;;;;;5.32;2.10;;;11.20;74.60;;;;;;2476997;55;21037;-69
2023/12/09 03:44:36;;;;;;;8.15;2.25;;;11.20;74.60;;;;;;2475371;55;21029;-69
2023/12/09 03:47:02;;;;;;;4.95;2.30;;;11.20;74.60;;;;;;2475950;56;21267;-69
2023/12/09 03:49:28;;;;;;;7.37;2.50;;;11.20;74.60;;;;;;2476672;55;21663;-69
2023/12/09 03:51:55;;;;;;;5.72;2.72;;;11.20;74.60;;;;;;2473065;55;21586;-69
2023/12/09 03:54:21;;;;;;;4.43;2.10;;;11.30;74.70;;;;;;2252271;56;21043;-69
2023/12/09 03:56:50;;;;;;;3.72;2.03;;;11.30;74.80;;;;;;2251968;55;21490;-69
2023/12/09 03:59:16;;;;;;;6.60;2.80;;;11.30;74.70;;;;;;2252896;56;20955;-69
2023/12/09 04:01:50;;;;;;;5.07;2.15;;;11.30;74.70;;;;;;2475173;55;20983;-69
2023/12/09 04:04:16;;;;;;;3.87;1.83;;;11.30;74.60;;;;;;2476364;56;21035;-69
2023/12/09 04:06:42;;;;;;;4.25;1.90;;;11.30;74.50;;;;;;2252291;56;21120;-69
2023/12/09 04:09:12;;;;;;;4.18;2.00;;;11.40;74.70;;;;;;2477017;55;21427;-68
2023/12/09 04:11:38;;;;;;;6.65;2.30;;;11.30;74.50;;;;;;2475743;55;21540;-69
2023/12/09 04:14:04;;;;;;;5.25;2.03;;;11.40;74.60;;;;;;2458230;56;20983;-69
2023/12/09 04:16:30;;;;;;;6.87;1.83;;;11.40;74.60;;;;;;2467460;55;21517;-69
2023/12/09 04:18:57;;;;;;;6.80;2.20;;;11.40;74.60;;;;;;2472394;55;21319;-69
2023/12/09 04:21:23;;;;;;;5.62;1.92;;;11.40;74.50;;;;;;2476056;55;20986;-69
2023/12/09 04:23:49;;;;;;;6.12;1.87;;;11.40;74.50;;;;;;2476460;55;20958;-69
2023/12/09 04:26:16;;;;;;;5.15;1.70;;;11.40;74.60;;;;;;2476874;55;21288;-69
2023/12/09 04:28:42;;;;;;;6.03;1.85;;;11.40;74.60;;;;;;2476107;55;21027;-69
2023/12/09 04:31:08;;;;;;;4.72;1.45;;;11.40;74.60;;;;;;2256442;55;21481;-69
2023/12/09 04:33:34;;;;;;;5.93;1.90;;;11.50;74.70;;;;;;2475968;55;21017;-69
2023/12/09 04:36:02;;;;;;;7.45;2.05;;;11.50;74.70;;;;;;2474267;55;21377;-69
2023/12/09 04:38:29;;;;;;;5.93;1.85;;;11.50;74.70;;;;;;2476120;55;20995;-69
2023/12/09 04:40:55;;;;;;;5.68;1.73;;;11.50;74.70;;;;;;2253027;55;21011;-69
2023/12/09 04:43:21;;;;;;;5.60;1.65;;;11.50;74.60;;;;;;2476651;55;21329;-69
2023/12/09 04:45:48;;;;;;;4.72;1.50;;;11.50;74.60;;;;;;2477776;55;21328;-69
2023/12/09 04:48:14;;;;;;;4.57;1.52;;;11.50;74.60;;;;;;2251189;55;20954;-69
2023/12/09 04:50:41;;;;;;;6.07;2.25;;;11.50;74.50;;;;;;2238997;57;20974;-69
2023/12/09 04:53:07;;;;;;;6.10;1.80;;;11.60;74.60;;;;;;2480881;55;21757;-69
2023/12/09 04:55:33;;;;;;;4.80;1.37;;;11.60;74.50;;;;;;2478549;55;21098;-69
2023/12/09 04:58:00;;;;;;;5.32;1.70;;;11.60;74.60;;;;;;2482463;55;21007;-69
2023/12/09 05:00:26;;;;;;;5.37;1.87;;;11.60;74.60;;;;;;2251414;55;21526;-69
2023/12/09 05:02:53;;;;;;;4.30;1.55;;;11.60;74.50;;;;;;2475851;55;20963;-69
2023/12/09 05:05:19;;;;;;;5.70;1.80;;;11.60;74.50;;;;;;2469373;54;21073;-69
2023/12/09 05:07:45;;;;;;;4.70;1.70;;;11.60;74.40;;;;;;2469491;55;21095;-69
2023/12/09 05:10:12;;;;;;;5.15;1.70;;;11.60;74.40;;;;;;2481058;55;21823;-69
2023/12/09 05:12:39;;;;;;;5.00;1.70;;;11.60;74.40;;;;;;2471729;56;21330;-69
2023/12/09 05:15:06;;;;;;;5.47;1.73;;;11.60;74.40;;;;;;2244291;55;21000;-69
2023/12/09 05:17:32;;;;;;;5.97;1.85;;;11.60;74.40;;;;;;2253276;56;21349;-68
2023/12/09 05:19:59;;;;;;;5.30;1.90;;;11.70;74.50;;;;;;2251108;55;20959;-69
2023/12/09 05:22:25;;;;;;;5.95;1.87;;;11.60;74.40;;;;;;2484049;55;21515;-68
2023/12/09 05:24:52;;;;;;;4.35;1.85;;;11.60;74.40;;;;;;2262467;55;21030;-69
2023/12/09 05:27:18;;;;;;;4.80;1.60;;;11.60;74.40;;;;;;2476318;55;20990;-69
2023/12/09 05:29:44;;;;;;;7.10;2.35;;;11.60;74.40;;;;;;2252705;56;20982;-69
2023/12/09 05:32:10;;;;;;;3.62;1.70;;;11.70;74.40;;;;;;2480153;55;21031;-68
2023/12/09 05:34:37;;;;;;;3.90;1.58;;;11.70;74.40;;;;;;2476623;55;20970;-69
2023/12/09 05:37:04;;;;;;;6.75;1.95;;;11.70;74.40;;;;;;2253849;57;20958;-68
2023/12/09 05:39:30;;;;;;;4.70;1.75;;;11.70;74.40;;;;;;2252765;56;21006;-69
2023/12/09 05:41:56;;;;;;;6.05;1.67;;;11.70;74.30;;;;;;2455900;55;20934;-69
2023/12/09 05:44:23;;;;;;;8.63;2.20;;;11.70;74.40;;;;;;2255997;56;20983;-68
2023/12/09 05:46:49;;;;;;;7.00;1.80;;;11.70;74.40;;;;;;2261777;56;20936;-69
2023/12/09 05:49:16;;;;;;;5.45;1.77;;;11.70;74.40;;;;;;2477264;55;20959;-69
2023/12/09 05:51:42;;;;;;;5.12;1.60;;;11.70;74.40;;;;;;2476660;55;21460;-69
2023/12/09 05:54:09;;;;;;;4.55;2.00;;;11.70;74.40;;;;;;2475055;55;20994;-69
2023/12/09 05:56:35;;;;;;;5.20;1.87;;;11.70;74.40;;;;;;2227404;56;20955;-68
2023/12/09 05:59:01;;;;;;;7.07;2.00;;;11.50;74.20;;;;;;2466977;55;21022;-69
2023/12/09 06:01:28;;;;;;;5.05;2.10;;;11.70;74.30;;;;;;2475163;56;20966;-69
2023/12/09 06:03:54;;;;;;;6.30;1.90;;;11.70;74.30;;;;;;2472742;55;21498;-68
2023/12/09 06:06:20;;;;;;;4.50;1.60;;;11.70;74.30;;;;;;2257113;56;21376;-69
2023/12/09 06:08:46;;;;;;;4.18;1.65;;;11.70;74.30;;;;;;2485469;54;20936;-69
2023/12/09 06:11:14;;;;;;;3.53;1.33;;;11.70;74.30;;;;;;2477118;55;21145;-69
2023/12/09 06:13:40;;;;;;;4.90;1.52;;;11.70;74.40;;;;;;2457541;56;21039;-68
2023/12/09 06:16:07;;;;;;;5.30;1.58;;;11.70;74.40;;;;;;2245315;56;21026;-68
2023/12/09 06:18:33;;;;;;;4.18;1.37;;;11.70;74.40;;;;;;2474734;55;20943;-69
2023/12/09 06:20:59;;;;;;;5.20;1.37;;;11.70;74.40;;;;;;2252777;56;21057;-69
2023/12/09 06:23:26;;;;;;;3.85;1.67;;;11.70;74.40;;;;;;2258777;55;21028;-69
2023/12/09 06:25:53;;;;;;;5.07;1.73;;;11.80;74.50;;;;;;2480668;54;21483;-69
2023/12/09 06:28:19;;;;;;;3.85;1.33;;;11.80;74.40;;;;;;2251773;55;21424;-69
2023/12/09 06:30:45;;;;;;;3.50;1.20;;;11.80;74.40;;;;;;2476041;55;21069;-69
2023/12/09 06:33:12;;;;;;;3.03;1.23;;;11.80;74.40;;;;;;2476726;55;20983;-69
2023/12/09 06:35:38;;;;;;;3.97;1.20;;;11.80;74.40;;;;;;2257455;55;20986;-69
2023/12/09 06:38:04;;;;;;;3.97;1.27;;;11.80;74.30;;;;;;2471818;55;21408;-69
2023/12/09 06:40:31;;;;;;;2.47;1.17;;;11.80;74.20;;;;;;2250445;56;21011;-68
2023/12/09 06:42:57;;;;;;;5.78;2.55;;;11.80;74.20;;;;;;2475831;56;21014;-68
2023/12/09 06:45:23;;;;;;;6.32;2.75;;;11.80;74.10;;;;;;2477400;55;21322;-69
2023/12/09 06:47:53;;;;;;;5.70;3.22;;;11.80;74.10;;;;;;2473859;55;21026;-68
2023/12/09 06:50:20;;;;;;;5.20;3.20;;;11.80;74.10;;;;;;2251657;56;21483;-69
2023/12/09 06:52:46;;;;;;;6.50;3.47;;;11.80;74.10;;;;;;2477578;55;21489;-68
2023/12/09 06:55:13;;;;;;;5.03;2.28;;;11.80;74.10;;;;;;2258589;55;21124;-69
2023/12/09 06:57:39;;;;;;;5.25;1.62;;;11.70;73.90;;;;;;2259982;56;21006;-69
2023/12/09 07:00:08;;;;;;;5.28;1.55;;;11.80;74.00;;;;;;2253103;55;20996;-69
2023/12/09 07:02:35;;;;;;;5.00;1.30;;;11.70;73.80;;;;;;2244221;56;21480;-69
2023/12/09 07:05:04;;;;;;;3.30;1.20;;;11.70;73.90;;;;;;2476077;56;20973;-69
2023/12/09 07:07:30;;;;;;;2.95;1.45;;;11.70;73.80;;;;;;2475929;55;21492;-68
2023/12/09 07:09:56;;;;;;;3.72;1.10;;;11.70;73.80;;;;;;2247700;55;20962;-68
2023/12/09 07:12:23;;;;;;;2.40;1.05;;;11.70;73.80;;;;;;2481088;55;21003;-68
2023/12/09 07:14:49;;;;;;;1.87;0.95;;;11.70;74.50;;;;;;2235498;55;21536;-69
2023/12/09 07:17:15;;;;;;;3.67;1.20;;;11.70;73.80;;;;;;2256407;56;21542;-69
2023/12/09 07:19:42;;;;;;;2.37;1.00;;;11.70;73.80;;;;;;2484420;54;20949;-68
2023/12/09 07:22:08;;;;;;;2.95;1.05;;;11.70;73.80;;;;;;2455727;55;20988;-69
2023/12/09 07:24:34;;;;;;;3.20;1.00;;;11.60;73.60;;;;;;2251573;55;21511;-69
2023/12/09 07:27:02;;;;;;;3.00;1.20;;;11.60;73.60;;;;;;2477102;55;21235;-68
2023/12/09 07:29:28;;;;;;;2.80;1.05;;;11.60;73.70;;;;;;2251324;55;21022;-68
2023/12/09 07:31:55;;;;;;;2.70;1.12;;;11.60;73.60;;;;;;2250138;55;21501;-68
2023/12/09 07:34:22;;;;;;;3.05;1.08;;;11.60;73.60;;;;;;2478051;55;21189;-68
2023/12/09 07:36:48;;;;;;;2.80;1.00;;;11.60;73.60;;;;;;2477379;55;20955;-68
2023/12/09 07:39:14;;;;;;;2.78;1.05;;;11.60;73.70;;;;;;2477712;55;21043;-68
2023/12/09 07:41:42;;;;;;;2.45;1.10;;;11.60;73.70;;;;;;2250007;57;21495;-69
2023/12/09 07:44:09;;;;;;;2.95;1.20;;;11.60;73.70;;;;;;2477966;55;21010;-69
2023/12/09 07:46:36;;;;;;;3.15;1.05;;;11.60;73.70;;;;;;2251027;56;21116;-68
2023/12/09 07:49:02;;;;;;;4.87;1.12;;;11.50;73.60;;;;;;2477594;56;21195;-68
2023/12/09 07:51:28;;;;;;;3.05;1.20;;;11.50;73.60;;;;;;2477841;55;20959;-68
2023/12/09 07:53:54;;;;;;;4.40;1.70;;;11.50;73.70;;;;;;2251181;56;20962;-69
2023/12/09 07:56:21;;;;;;;4.60;2.35;;;11.50;73.70;;;;;;2256041;55;21102;-68
2023/12/09 07:58:47;;;;;;;5.15;2.28;;;11.50;73.80;;;;;;2250928;55;21036;-68
2023/12/09 08:01:14;;;;;;;6.05;2.65;;;11.50;73.80;;;;;;2250451;55;20979;-68
2023/12/09 08:03:40;;;;;;;5.28;2.25;;;11.50;73.90;;;;;;2475610;55;21495;-69
2023/12/09 08:06:07;;;;;;;4.15;1.73;;;11.40;73.80;;;;;;2475639;56;20980;-68
2023/12/09 08:08:33;;;;;;;4.15;1.73;;;11.50;73.90;;;;;;2482646;55;21006;-68
2023/12/09 08:11:01;;;;;;;4.62;1.40;;;11.50;73.90;;;;;;2250983;56;20971;-68
2023/12/09 08:13:27;;;;;;;4.37;1.20;;;11.50;74.00;;;;;;2251430;55;21010;-69
2023/12/09 08:15:55;;;;;;;3.70;1.23;;;11.50;74.00;;;;;;2251218;56;21027;-68
2023/12/09 08:18:22;;;;;;;2.83;1.15;;;11.50;74.10;;;;;;2260832;55;21328;-68
2023/12/09 08:20:48;;;;;;;6.57;1.23;;;11.50;74.00;;;;;;2250778;55;21303;-68
2023/12/09 08:23:14;;;;;;;3.20;1.25;;;11.50;74.10;;;;;;2251268;55;21015;-68
2023/12/09 08:25:43;;;;;;;4.50;1.33;;;11.50;74.20;;;;;;2477659;55;21047;-67
2023/12/09 08:28:09;;;;;;;3.25;1.23;;;11.50;74.20;;;;;;2251001;55;20986;-68
2023/12/09 08:30:36;;;;;;;3.55;1.35;;;11.50;74.20;;;;;;2478269;55;22017;-68
2023/12/09 08:33:03;;;;;;;3.28;1.30;;;11.60;74.30;;;;;;2477071;55;21015;-69
2023/12/09 08:35:30;;;;;;;4.12;1.12;;;11.60;74.40;;;;;;2477536;55;21512;-68
2023/12/09 08:37:56;;;;;;;3.25;1.10;;;11.60;74.40;;;;;;2477466;56;21987;-68
2023/12/09 08:40:23;;;;;;;3.25;1.10;;;11.60;74.30;;;;;;2456309;56;20970;-68
2023/12/09 08:42:49;;;;;;;2.97;1.10;;;11.60;74.30;;;;;;2248156;56;21779;-68
2023/12/09 08:45:16;;;;;;;3.37;1.00;;;11.60;74.30;;;;;;2483183;55;21079;-68
2023/12/09 08:47:43;;;;;;;3.10;1.12;;;11.60;74.30;;;;;;2476974;55;21241;-68
2023/12/09 08:50:09;;;;;;;4.47;1.25;;;11.60;74.30;;;;;;2477586;55;21192;-68
2023/12/09 08:52:43;;;;;;;3.58;0.98;;;11.60;74.30;;;;;;2251004;55;20954;-68
2023/12/09 08:55:10;;;;;;;2.67;0.90;;;11.70;74.30;;;;;;2477882;55;20966;-69
2023/12/09 08:57:37;;;;;;;2.45;0.85;;;11.70;74.30;;;;;;2251262;55;21857;-69
2023/12/09 09:00:08;;;;;;;2.62;0.77;;;11.70;74.30;;;;;;2477683;55;20935;-69
2023/12/09 09:02:34;;;;;;;3.20;0.88;;;11.70;74.30;;;;;;2256177;55;21046;-68
2023/12/09 09:05:00;;;;;;;2.37;0.88;;;11.70;74.30;;;;;;2252808;55;21030;-69
2023/12/09 09:07:28;;;;;;;3.60;0.70;;;11.70;74.30;;;;;;2476815;56;20995;-68
2023/12/09 09:09:54;;;;;;;2.42;0.80;;;11.70;74.30;;;;;;2482128;55;21468;-68
2023/12/09 09:12:26;;;;;;;3.55;1.30;;;11.80;74.40;;;;;;2478626;55;20994;-69
2023/12/09 09:14:52;;;;;;;3.67;1.10;;;11.80;74.30;;;;;;2478533;55;21036;-69
2023/12/09 09:17:22;;;;;;;3.85;1.00;;;11.80;74.30;;;;;;2246946;57;21079;-68
2023/12/09 09:19:48;;;;;;;3.53;0.90;;;11.80;74.30;;;;;;2464118;55;20963;-68
2023/12/09 09:22:16;;;;;;;3.50;1.20;;;11.80;74.20;;;;;;2256945;55;20954;-68
2023/12/09 09:24:42;;;;;;;3.70;1.40;;;11.80;74.20;;;;;;2253217;55;20982;-68
2023/12/09 09:27:09;;;;;;;2.97;1.10;;;11.80;74.20;;;;;;2252071;57;21034;-68
2023/12/09 09:29:38;;;;;;;2.87;0.93;;;11.80;74.20;;;;;;2461475;56;21059;-68
2023/12/09 09:32:05;;;;;;;5.30;1.10;;;11.80;74.20;;;;;;2229187;56;20975;-68
2023/12/09 09:34:32;;;;;;;4.72;0.93;;;11.80;74.10;;;;;;2251432;55;22442;-68
2023/12/09 09:37:00;;;;;;;2.80;0.80;;;11.90;74.20;;;;;;2478732;55;21074;-68
2023/12/09 09:39:30;;;;;;;6.40;1.08;;;11.90;74.20;;;;;;2490377;54;22047;-68
2023/12/09 09:42:13;;;;;;;3.30;0.77;;;11.90;74.10;;;;;;2256271;55;21227;-68
2023/12/09 09:44:44;;;;;;;3.47;0.80;;;11.90;74.00;;;;;;2478303;55;21544;-69
2023/12/09 09:47:10;;;;;;;3.25;1.00;;;11.90;74.00;;;;;;2478673;55;21107;-68
2023/12/09 09:49:38;;;;;;;2.67;0.82;;;11.90;74.10;;;;;;2480912;55;21081;-69
2023/12/09 09:52:07;;;;;;;3.17;0.82;;;11.90;74.00;;;;;;2476975;54;21061;-68
2023/12/09 09:54:33;;;;;;;3.40;0.88;;;11.90;74.00;;;;;;2470429;55;21011;-68
2023/12/09 09:57:03;;;;;;;4.47;1.10;;;11.90;73.90;;;;;;2477828;55;20967;-68
2023/12/09 09:59:30;;;;;;;4.28;0.98;;;11.90;73.90;;;;;;2478381;55;21014;-68
2023/12/09 10:01:57;;;;;;;2.83;0.70;;;11.90;73.80;;;;;;2251477;57;21057;-69
2023/12/09 10:04:24;;;;;;;3.85;1.30;;;11.90;73.80;;;;;;2478231;55;20947;-69
2023/12/09 10:06:51;;;;;;;3.00;0.95;;;12.00;74.00;;;;;;2478053;55;21018;-68
2023/12/09 10:09:18;;;;;;;5.60;1.55;;;12.00;74.00;;;;;;2478834;55;20998;-69
2023/12/09 10:11:44;;;;;;;5.10;1.08;;;12.00;73.90;;;;;;2263835;55;21056;-69
2023/12/09 10:14:12;;;;;;;3.62;1.00;;;12.00;73.90;;;;;;2246679;56;20938;-69
2023/12/09 10:16:39;;;;;;;2.28;0.88;;;12.00;73.80;;;;;;2259320;55;20962;-68
2023/12/09 10:19:08;;;;;;;3.85;1.25;;;12.00;73.80;;;;;;2251868;55;21063;-68
2023/12/09 10:21:36;;;;;;;2.72;0.80;;;12.00;73.70;;;;;;2241497;56;21227;-68
2023/12/09 10:24:04;;;;;;;5.43;1.50;;;12.00;73.70;;;;;;2471782;55;20937;-68
2023/12/09 10:26:31;;;;;;;3.55;1.25;;;12.00;73.70;;;;;;2477373;55;21539;-69
2023/12/09 10:28:59;;;;;;;3.60;1.10;;;12.00;73.70;;;;;;2477353;55;20979;-68
2023/12/09 10:31:29;;;;;;;2.67;1.02;;;12.00;73.60;;;;;;2252031;56;20919;-68
2023/12/09 10:33:57;;;;;;;3.60;1.10;;;12.00;73.60;;;;;;2478317;55;20942;-68
2023/12/09 10:36:24;;;;;;;2.40;0.90;;;12.00;73.60;;;;;;2478575;56;21031;-69
2023/12/09 10:38:52;;;;;;;3.37;0.90;;;12.00;73.60;;;;;;2477535;55;20955;-68
2023/12/09 10:41:23;;;;;;;1.52;0.68;;;12.00;73.60;;;;;;2252844;56;21691;-68
2023/12/09 10:43:58;;;;;;;3.53;1.15;;;12.00;73.60;;;;;;2252328;55;21823;-71
2023/12/09 10:46:26;;;;;;;3.40;1.37;;;12.00;73.60;;;;;;2251832;55;21021;-68
2023/12/09 10:48:53;;;;;;;3.40;1.10;;;12.00;73.60;;;;;;2478633;55;21956;-68
2023/12/09 10:51:20;;;;;;;1.70;0.60;;;12.00;73.60;;;;;;2478585;55;20967;-68
2023/12/09 10:53:46;;;;;;;2.92;0.90;;;12.00;73.60;;;;;;2477909;55;20970;-68
2023/12/09 10:56:12;;;;;;;4.45;1.35;;;12.00;73.60;;;;;;2478231;55;21196;-69
2023/12/09 10:58:39;;;;;;;3.28;0.90;;;12.00;73.60;;;;;;2482470;55;20955;-69
2023/12/09 11:01:05;;;;;;;3.25;1.23;;;12.00;73.60;;;;;;2251891;57;21011;-68
2023/12/09 11:03:32;;;;;;;3.72;1.00;;;12.00;73.60;;;;;;2478330;55;21015;-68
2023/12/09 11:05:58;;;;;;;2.75;0.88;;;12.00;73.60;;;;;;2251359;55;21103;-69
2023/12/09 11:08:29;;;;;;;2.17;0.70;;;12.00;73.60;;;;;;2480584;54;20944;-68
2023/12/09 11:10:57;;;;;;;1.98;0.73;;;12.00;73.60;;;;;;2470387;55;20974;-68
2023/12/09 11:13:33;;;;;;;3.10;0.70;;;12.00;73.60;;;;;;2452178;55;21060;-68
2023/12/09 11:16:12;;;;;;;3.55;0.77;;;12.00;73.40;;;;;;2246150;56;20950;-69
2023/12/09 11:18:55;;;;;;;1.98;0.60;;;12.10;73.40;;;;;;2483250;55;21029;-69
2023/12/09 11:21:28;;;;;;;1.90;0.65;;;12.10;73.40;;;;;;2261289;56;21394;-71
2023/12/09 11:23:56;;;;;;;3.07;0.50;;;12.10;73.90;;;;;;2233754;57;20974;-69
2023/12/09 11:26:29;;;;;;;4.10;0.60;;;12.10;74.00;;;;;;2266083;56;20944;-69
2023/12/09 11:28:58;;;;;;;2.50;0.70;;;12.10;73.90;;;;;;2489285;55;20963;-69
2023/12/09 11:32:07;;;;;;;2.00;0.57;;;12.20;74.30;;;;;;2266166;56;21050;-69
2023/12/09 11:34:33;;;;;;;2.05;0.52;;;12.20;73.80;;;;;;2266310;55;20952;-70
2023/12/09 11:37:11;;;;;;;2.85;0.50;;;12.20;74.80;;;;;;2514499;54;20972;-69
2023/12/09 11:39:40;;;;;;;1.60;0.73;;;12.20;75.00;;;;;;2489615;55;20962;-70
2023/12/09 11:42:11;;;;;;;1.13;0.47;;;12.30;75.00;;;;;;2459908;55;20992;-70
2023/12/09 11:44:38;;;;;;;1.83;0.70;;;12.30;75.00;;;;;;2439826;55;21807;-70
2023/12/09 11:47:04;;;;;;;2.92;0.50;;;12.40;75.10;;;;;;2248226;56;21306;-70
2023/12/09 11:49:31;;;;;;;1.55;0.60;;;12.40;75.10;;;;;;2261004;55;21388;-69
2023/12/09 11:51:57;;;;;;;1.30;0.50;;;12.50;75.40;;;;;;2266014;56;21018;-69
2023/12/09 11:54:25;;;;;;;1.98;0.65;;;12.60;75.40;;;;;;2489494;55;21062;-70
2023/12/09 11:56:51;;;;;;;5.07;0.80;;;12.60;75.30;;;;;;2260758;56;20993;-70
2023/12/09 11:59:19;;;;;;;3.42;0.50;;;12.70;75.20;;;;;;2481102;54;21631;-69
2023/12/09 12:01:45;;;;;;;1.70;0.60;;;12.70;75.10;;;;;;2253258;55;20973;-69
2023/12/09 12:04:11;;;;;;;1.10;0.43;;;12.70;74.90;;;;;;2479666;55;21757;-69
2023/12/09 12:06:38;;;;;;;4.40;0.80;;;12.80;74.90;;;;;;2488340;55;20947;-69
2023/12/09 12:09:04;;;;;;;2.35;0.70;;;12.80;74.80;;;;;;2259540;56;21465;-70
2023/12/09 12:11:32;;;;;;;3.67;0.70;;;12.80;74.70;;;;;;2259809;56;20959;-69
2023/12/09 12:14:00;;;;;;;1.73;0.60;;;12.90;74.50;;;;;;2260249;55;21119;-69
2023/12/09 12:16:37;;;;;;;1.12;0.50;;;12.90;74.30;;;;;;2488503;54;21806;-70
2023/12/09 12:19:05;;;;;;;1.75;0.60;;;12.90;74.20;;;;;;2485969;54;21011;-69
2023/12/09 12:21:34;;;;;;;3.00;0.60;;;13.00;74.20;;;;;;2472942;54;21530;-69
2023/12/09 12:24:04;;;;;;;0.95;0.40;;;13.00;74.10;;;;;;2488300;55;21061;-69
2023/12/09 12:26:30;;;;;;;2.25;0.50;;;13.00;73.80;;;;;;2494522;55;20976;-69
2023/12/09 12:28:57;;;;;;;1.73;0.60;;;13.00;73.60;;;;;;2259810;55;20983;-69
2023/12/09 12:31:27;;;;;;;1.35;0.52;;;13.00;73.40;;;;;;2494965;54;20970;-69
2023/12/09 12:33:56;;;;;;;1.50;0.60;;;13.10;73.50;;;;;;2488696;55;20943;-69
2023/12/09 12:36:23;;;;;;;2.17;0.68;;;13.00;73.10;;;;;;2489197;55;20962;-70
2023/12/09 12:38:50;;;;;;;5.05;1.17;;;13.00;73.10;;;;;;2487921;55;22219;-70
2023/12/09 12:41:22;;;;;;;0.77;0.40;;;13.00;73.10;;;;;;2265659;56;20902;-69
2023/12/09 12:43:48;;;;;;;3.00;0.98;;;13.10;73.10;;;;;;2487917;55;21102;-70
2023/12/09 12:46:18;;;;;;;1.10;0.50;;;13.00;72.90;;;;;;2485959;54;21645;-70
2023/12/09 12:48:44;;;;;;;1.83;0.65;;;13.00;72.70;;;;;;2454633;55;21026;-70